sensor_id;sensor_type;location;lat;lon;timestamp;temperature;humidity
3348;DHT22;1687;49.540;8.574;2023-02-15T00:01:39;4.00;92.40
3348;DHT22;1687;49.540;8.574;2023-02-15T00:04:05;3.90;92.00
3348;DHT22;1687;49.540;8.574;2023-02-15T00:06:32;3.70;91.80
3348;DHT22;1687;49.540;8.574;2023-02-15T00:08:58;3.70;92.10
3348;DHT22;1687;49.540;8.574;2023-02-15T00:11:24;3.70;92.30
3348;DHT22;1687;49.540;8.574;2023-02-15T00:14:07;3.80;93.00
3348;DHT22;1687;49.540;8.574;2023-02-15T00:16:42;4.00;92.80
3348;DHT22;1687;49.540;8.574;2023-02-15T00:19:09;4.00;92.60
3348;DHT22;1687;49.540;8.574;2023-02-15T00:21:37;4.00;92.60
3348;DHT22;1687;49.540;8.574;2023-02-15T00:24:06;3.90;92.20
3348;DHT22;1687;49.540;8.574;2023-02-15T00:26:33;3.80;92.30
3348;DHT22;1687;49.540;8.574;2023-02-15T00:29:01;3.70;92.20
3348;DHT22;1687;49.540;8.574;2023-02-15T00:31:30;3.60;92.40
3348;DHT22;1687;49.540;8.574;2023-02-15T00:34:05;3.70;92.90
3348;DHT22;1687;49.540;8.574;2023-02-15T00:36:33;3.80;93.00
3348;DHT22;1687;49.540;8.574;2023-02-15T00:38:59;3.90;93.10
3348;DHT22;1687;49.540;8.574;2023-02-15T00:41:24;4.00;93.20
3348;DHT22;1687;49.540;8.574;2023-02-15T00:43:50;4.00;92.80
3348;DHT22;1687;49.540;8.574;2023-02-15T00:46:16;4.00;93.30
3348;DHT22;1687;49.540;8.574;2023-02-15T00:48:41;4.00;93.20
3348;DHT22;1687;49.540;8.574;2023-02-15T00:51:08;4.00;93.10
3348;DHT22;1687;49.540;8.574;2023-02-15T00:53:33;4.00;93.20
3348;DHT22;1687;49.540;8.574;2023-02-15T00:55:59;4.00;92.90
3348;DHT22;1687;49.540;8.574;2023-02-15T00:58:25;4.00;93.30
3348;DHT22;1687;49.540;8.574;2023-02-15T01:00:51;4.00;93.20
3348;DHT22;1687;49.540;8.574;2023-02-15T01:03:18;4.10;93.30
3348;DHT22;1687;49.540;8.574;2023-02-15T01:05:46;4.00;93.10
3348;DHT22;1687;49.540;8.574;2023-02-15T01:08:12;3.90;92.90
3348;DHT22;1687;49.540;8.574;2023-02-15T01:10:38;3.90;93.30
3348;DHT22;1687;49.540;8.574;2023-02-15T01:13:04;3.90;93.40
3348;DHT22;1687;49.540;8.574;2023-02-15T01:15:29;3.90;93.40
3348;DHT22;1687;49.540;8.574;2023-02-15T01:17:55;4.00;93.20
3348;DHT22;1687;49.540;8.574;2023-02-15T01:20:24;4.00;93.50
3348;DHT22;1687;49.540;8.574;2023-02-15T01:22:52;3.90;93.10
3348;DHT22;1687;49.540;8.574;2023-02-15T01:25:19;3.90;93.50
3348;DHT22;1687;49.540;8.574;2023-02-15T01:27:46;4.00;93.60
3348;DHT22;1687;49.540;8.574;2023-02-15T01:30:13;4.10;93.70
3348;DHT22;1687;49.540;8.574;2023-02-15T01:32:40;4.10;93.90
3348;DHT22;1687;49.540;8.574;2023-02-15T01:35:07;4.20;93.60
3348;DHT22;1687;49.540;8.574;2023-02-15T01:37:33;4.20;93.70
3348;DHT22;1687;49.540;8.574;2023-02-15T01:40:00;4.20;93.60
3348;DHT22;1687;49.540;8.574;2023-02-15T01:42:29;4.20;93.30
3348;DHT22;1687;49.540;8.574;2023-02-15T01:45:00;4.20;93.60
3348;DHT22;1687;49.540;8.574;2023-02-15T01:47:38;4.20;93.40
3348;DHT22;1687;49.540;8.574;2023-02-15T01:50:23;4.10;93.20
3348;DHT22;1687;49.540;8.574;2023-02-15T01:53:23;4.10;93.60
3348;DHT22;1687;49.540;8.574;2023-02-15T01:56:01;4.10;93.60
3348;DHT22;1687;49.540;8.574;2023-02-15T01:58:29;4.10;93.70
3348;DHT22;1687;49.540;8.574;2023-02-15T02:00:57;4.00;93.50
3348;DHT22;1687;49.540;8.574;2023-02-15T02:03:42;3.90;93.10
3348;DHT22;1687;49.540;8.574;2023-02-15T02:06:13;3.90;93.50
3348;DHT22;1687;49.540;8.574;2023-02-15T02:08:40;3.90;93.80
3348;DHT22;1687;49.540;8.574;2023-02-15T02:11:15;4.00;93.80
3348;DHT22;1687;49.540;8.574;2023-02-15T02:13:43;4.10;94.00
3348;DHT22;1687;49.540;8.574;2023-02-15T02:16:20;4.20;94.00
3348;DHT22;1687;49.540;8.574;2023-02-15T02:25:32;4.20;93.60
3348;DHT22;1687;49.540;8.574;2023-02-15T02:31:12;4.40;94.00
3348;DHT22;1687;49.540;8.574;2023-02-15T02:34:18;4.40;93.90
3348;DHT22;1687;49.540;8.574;2023-02-15T02:36:58;4.40;94.00
3348;DHT22;1687;49.540;8.574;2023-02-15T02:39:31;4.50;94.00
3348;DHT22;1687;49.540;8.574;2023-02-15T02:45:08;4.40;93.80
3348;DHT22;1687;49.540;8.574;2023-02-15T02:47:55;4.40;93.80
3348;DHT22;1687;49.540;8.574;2023-02-15T02:50:28;4.40;93.70
3348;DHT22;1687;49.540;8.574;2023-02-15T02:52:56;4.30;93.80
3348;DHT22;1687;49.540;8.574;2023-02-15T02:55:30;4.30;93.70
3348;DHT22;1687;49.540;8.574;2023-02-15T02:58:08;4.30;93.70
3348;DHT22;1687;49.540;8.574;2023-02-15T03:00:57;4.30;94.00
3348;DHT22;1687;49.540;8.574;2023-02-15T03:04:06;4.30;94.00
3348;DHT22;1687;49.540;8.574;2023-02-15T03:06:46;4.30;93.80
3348;DHT22;1687;49.540;8.574;2023-02-15T03:12:08;4.30;94.00
3348;DHT22;1687;49.540;8.574;2023-02-15T03:14:35;4.30;93.90
3348;DHT22;1687;49.540;8.574;2023-02-15T03:17:02;4.30;94.00
3348;DHT22;1687;49.540;8.574;2023-02-15T03:19:32;4.40;94.00
3348;DHT22;1687;49.540;8.574;2023-02-15T03:22:04;4.40;94.00
3348;DHT22;1687;49.540;8.574;2023-02-15T03:24:43;4.40;94.10
3348;DHT22;1687;49.540;8.574;2023-02-15T03:27:21;4.40;94.00
3348;DHT22;1687;49.540;8.574;2023-02-15T03:29:54;4.40;94.00
3348;DHT22;1687;49.540;8.574;2023-02-15T03:32:21;4.40;94.40
3348;DHT22;1687;49.540;8.574;2023-02-15T03:34:48;4.40;93.90
3348;DHT22;1687;49.540;8.574;2023-02-15T03:37:34;4.40;94.00
3348;DHT22;1687;49.540;8.574;2023-02-15T03:43:02;4.40;93.90
3348;DHT22;1687;49.540;8.574;2023-02-15T03:45:50;4.40;93.90
3348;DHT22;1687;49.540;8.574;2023-02-15T03:48:34;4.30;94.10
3348;DHT22;1687;49.540;8.574;2023-02-15T03:51:14;4.30;93.90
3348;DHT22;1687;49.540;8.574;2023-02-15T03:54:18;4.30;94.00
3348;DHT22;1687;49.540;8.574;2023-02-15T03:57:17;4.30;94.10
3348;DHT22;1687;49.540;8.574;2023-02-15T04:00:17;4.30;93.90
3348;DHT22;1687;49.540;8.574;2023-02-15T04:05:50;4.20;93.70
3348;DHT22;1687;49.540;8.574;2023-02-15T04:08:15;4.20;94.00
3348;DHT22;1687;49.540;8.574;2023-02-15T04:10:41;4.20;94.20
3348;DHT22;1687;49.540;8.574;2023-02-15T04:13:22;4.20;94.10
3348;DHT22;1687;49.540;8.574;2023-02-15T04:15:50;4.20;94.10
3348;DHT22;1687;49.540;8.574;2023-02-15T04:18:36;4.20;94.00
3348;DHT22;1687;49.540;8.574;2023-02-15T04:21:23;4.20;94.00
3348;DHT22;1687;49.540;8.574;2023-02-15T04:24:08;4.20;94.20
3348;DHT22;1687;49.540;8.574;2023-02-15T04:26:53;4.20;94.30
3348;DHT22;1687;49.540;8.574;2023-02-15T04:29:23;4.30;94.20
3348;DHT22;1687;49.540;8.574;2023-02-15T04:31:51;4.20;94.20
3348;DHT22;1687;49.540;8.574;2023-02-15T04:34:18;4.10;93.80
3348;DHT22;1687;49.540;8.574;2023-02-15T04:36:43;4.10;94.20
3348;DHT22;1687;49.540;8.574;2023-02-15T04:39:12;4.10;94.10
3348;DHT22;1687;49.540;8.574;2023-02-15T04:41:38;4.10;94.10
3348;DHT22;1687;49.540;8.574;2023-02-15T04:44:04;4.00;93.80
3348;DHT22;1687;49.540;8.574;2023-02-15T04:46:30;3.80;93.60
3348;DHT22;1687;49.540;8.574;2023-02-15T04:48:56;3.80;94.00
3348;DHT22;1687;49.540;8.574;2023-02-15T04:51:21;3.80;94.30
3348;DHT22;1687;49.540;8.574;2023-02-15T04:53:47;3.80;94.10
3348;DHT22;1687;49.540;8.574;2023-02-15T04:56:13;3.90;94.30
3348;DHT22;1687;49.540;8.574;2023-02-15T04:58:39;3.90;94.20
3348;DHT22;1687;49.540;8.574;2023-02-15T05:01:08;3.90;94.20
3348;DHT22;1687;49.540;8.574;2023-02-15T05:03:34;4.00;94.40
3348;DHT22;1687;49.540;8.574;2023-02-15T05:06:00;4.00;94.30
3348;DHT22;1687;49.540;8.574;2023-02-15T05:08:25;4.00;94.30
3348;DHT22;1687;49.540;8.574;2023-02-15T05:10:51;3.90;93.80
3348;DHT22;1687;49.540;8.574;2023-02-15T05:13:17;3.80;94.00
3348;DHT22;1687;49.540;8.574;2023-02-15T05:15:50;3.90;94.40
3348;DHT22;1687;49.540;8.574;2023-02-15T05:18:17;3.90;94.40
3348;DHT22;1687;49.540;8.574;2023-02-15T05:20:45;4.00;94.40
3348;DHT22;1687;49.540;8.574;2023-02-15T05:23:11;3.90;94.20
3348;DHT22;1687;49.540;8.574;2023-02-15T05:25:36;3.80;94.00
3348;DHT22;1687;49.540;8.574;2023-02-15T05:28:22;3.70;94.30
3348;DHT22;1687;49.540;8.574;2023-02-15T05:31:02;3.80;94.40
3348;DHT22;1687;49.540;8.574;2023-02-15T05:33:38;3.80;94.40
3348;DHT22;1687;49.540;8.574;2023-02-15T05:36:05;3.90;94.60
3348;DHT22;1687;49.540;8.574;2023-02-15T05:38:31;4.00;94.50
3348;DHT22;1687;49.540;8.574;2023-02-15T05:40:57;4.00;94.50
3348;DHT22;1687;49.540;8.574;2023-02-15T05:43:23;4.10;94.60
3348;DHT22;1687;49.540;8.574;2023-02-15T05:45:53;4.10;94.50
3348;DHT22;1687;49.540;8.574;2023-02-15T05:48:21;4.20;94.60
3348;DHT22;1687;49.540;8.574;2023-02-15T05:51:03;4.20;94.50
3348;DHT22;1687;49.540;8.574;2023-02-15T05:53:38;4.20;94.50
3348;DHT22;1687;49.540;8.574;2023-02-15T05:56:06;4.10;94.40
3348;DHT22;1687;49.540;8.574;2023-02-15T05:58:34;4.10;94.50
3348;DHT22;1687;49.540;8.574;2023-02-15T06:01:09;4.10;94.40
3348;DHT22;1687;49.540;8.574;2023-02-15T06:03:39;4.10;94.40
3348;DHT22;1687;49.540;8.574;2023-02-15T06:06:05;4.10;94.40
3348;DHT22;1687;49.540;8.574;2023-02-15T06:08:32;4.00;94.40
3348;DHT22;1687;49.540;8.574;2023-02-15T06:10:59;4.10;94.50
3348;DHT22;1687;49.540;8.574;2023-02-15T06:13:26;4.10;94.50
3348;DHT22;1687;49.540;8.574;2023-02-15T06:15:52;4.10;94.40
3348;DHT22;1687;49.540;8.574;2023-02-15T06:18:17;4.10;94.60
3348;DHT22;1687;49.540;8.574;2023-02-15T06:20:45;4.10;94.70
3348;DHT22;1687;49.540;8.574;2023-02-15T06:23:11;4.20;94.80
3348;DHT22;1687;49.540;8.574;2023-02-15T06:25:37;4.20;94.90
3348;DHT22;1687;49.540;8.574;2023-02-15T06:28:02;4.30;94.70
3348;DHT22;1687;49.540;8.574;2023-02-15T06:30:28;4.30;94.70
3348;DHT22;1687;49.540;8.574;2023-02-15T06:32:54;4.40;94.80
3348;DHT22;1687;49.540;8.574;2023-02-15T06:35:19;4.40;94.60
3348;DHT22;1687;49.540;8.574;2023-02-15T06:37:46;4.40;94.60
3348;DHT22;1687;49.540;8.574;2023-02-15T06:40:12;4.40;94.60
3348;DHT22;1687;49.540;8.574;2023-02-15T06:42:38;4.40;94.80
3348;DHT22;1687;49.540;8.574;2023-02-15T06:45:04;4.40;94.70
3348;DHT22;1687;49.540;8.574;2023-02-15T06:47:30;4.40;94.80
3348;DHT22;1687;49.540;8.574;2023-02-15T06:49:55;4.40;94.80
3348;DHT22;1687;49.540;8.574;2023-02-15T06:52:22;4.40;94.80
3348;DHT22;1687;49.540;8.574;2023-02-15T06:54:48;4.50;94.90
3348;DHT22;1687;49.540;8.574;2023-02-15T06:57:14;4.60;94.90
3348;DHT22;1687;49.540;8.574;2023-02-15T06:59:39;4.60;94.80
3348;DHT22;1687;49.540;8.574;2023-02-15T07:02:05;4.60;94.60
3348;DHT22;1687;49.540;8.574;2023-02-15T07:04:31;4.50;94.50
3348;DHT22;1687;49.540;8.574;2023-02-15T07:06:57;4.50;94.50
3348;DHT22;1687;49.540;8.574;2023-02-15T07:09:22;4.50;95.00
3348;DHT22;1687;49.540;8.574;2023-02-15T07:11:48;4.60;94.90
3348;DHT22;1687;49.540;8.574;2023-02-15T07:14:32;4.60;94.80
3348;DHT22;1687;49.540;8.574;2023-02-15T07:16:58;4.60;94.80
3348;DHT22;1687;49.540;8.574;2023-02-15T07:19:24;4.60;94.90
3348;DHT22;1687;49.540;8.574;2023-02-15T07:21:49;4.70;94.90
3348;DHT22;1687;49.540;8.574;2023-02-15T07:24:15;4.60;94.60
3348;DHT22;1687;49.540;8.574;2023-02-15T07:26:41;4.60;94.70
3348;DHT22;1687;49.540;8.574;2023-02-15T07:29:07;4.60;94.60
3348;DHT22;1687;49.540;8.574;2023-02-15T07:31:33;4.60;94.70
3348;DHT22;1687;49.540;8.574;2023-02-15T07:33:58;4.70;94.70
3348;DHT22;1687;49.540;8.574;2023-02-15T07:36:24;4.60;94.60
3348;DHT22;1687;49.540;8.574;2023-02-15T07:38:50;4.70;94.90
3348;DHT22;1687;49.540;8.574;2023-02-15T07:41:16;4.70;94.90
3348;DHT22;1687;49.540;8.574;2023-02-15T07:43:43;4.80;94.80
3348;DHT22;1687;49.540;8.574;2023-02-15T07:46:12;4.80;94.80
3348;DHT22;1687;49.540;8.574;2023-02-15T07:48:40;4.80;94.80
3348;DHT22;1687;49.540;8.574;2023-02-15T07:51:08;4.80;94.90
3348;DHT22;1687;49.540;8.574;2023-02-15T07:53:36;4.80;94.70
3348;DHT22;1687;49.540;8.574;2023-02-15T07:56:04;4.80;94.70
3348;DHT22;1687;49.540;8.574;2023-02-15T07:58:34;4.90;95.00
3348;DHT22;1687;49.540;8.574;2023-02-15T08:01:29;4.90;95.00
3348;DHT22;1687;49.540;8.574;2023-02-15T08:03:56;4.90;94.80
3348;DHT22;1687;49.540;8.574;2023-02-15T08:06:27;4.90;94.50
3348;DHT22;1687;49.540;8.574;2023-02-15T08:08:54;4.80;94.50
3348;DHT22;1687;49.540;8.574;2023-02-15T08:14:11;4.80;94.70
3348;DHT22;1687;49.540;8.574;2023-02-15T08:19:24;4.80;94.50
3348;DHT22;1687;49.540;8.574;2023-02-15T08:21:54;4.80;94.90
3348;DHT22;1687;49.540;8.574;2023-02-15T08:24:26;4.90;95.10
3348;DHT22;1687;49.540;8.574;2023-02-15T08:26:54;5.00;95.00
3348;DHT22;1687;49.540;8.574;2023-02-15T08:29:25;4.90;94.50
3348;DHT22;1687;49.540;8.574;2023-02-15T08:31:54;4.80;94.10
3348;DHT22;1687;49.540;8.574;2023-02-15T08:34:28;4.70;94.40
3348;DHT22;1687;49.540;8.574;2023-02-15T08:36:55;4.70;94.40
3348;DHT22;1687;49.540;8.574;2023-02-15T08:39:21;4.60;94.30
3348;DHT22;1687;49.540;8.574;2023-02-15T08:41:48;4.60;94.80
3348;DHT22;1687;49.540;8.574;2023-02-15T08:44:18;4.70;95.00
3348;DHT22;1687;49.540;8.574;2023-02-15T08:46:45;4.70;94.70
3348;DHT22;1687;49.540;8.574;2023-02-15T08:49:15;4.70;94.70
3348;DHT22;1687;49.540;8.574;2023-02-15T08:51:43;4.70;94.80
3348;DHT22;1687;49.540;8.574;2023-02-15T08:54:12;4.70;95.10
3348;DHT22;1687;49.540;8.574;2023-02-15T08:56:41;4.70;94.50
3348;DHT22;1687;49.540;8.574;2023-02-15T08:59:12;4.70;94.80
3348;DHT22;1687;49.540;8.574;2023-02-15T09:01:42;4.60;94.50
3348;DHT22;1687;49.540;8.574;2023-02-15T09:04:08;4.60;94.40
3348;DHT22;1687;49.540;8.574;2023-02-15T09:06:36;4.60;94.60
3348;DHT22;1687;49.540;8.574;2023-02-15T09:09:02;4.50;94.60
3348;DHT22;1687;49.540;8.574;2023-02-15T09:11:32;4.50;94.80
3348;DHT22;1687;49.540;8.574;2023-02-15T09:14:03;4.60;95.10
3348;DHT22;1687;49.540;8.574;2023-02-15T09:16:35;4.60;94.60
3348;DHT22;1687;49.540;8.574;2023-02-15T09:19:03;4.60;94.90
3348;DHT22;1687;49.540;8.574;2023-02-15T09:21:31;4.50;94.30
3348;DHT22;1687;49.540;8.574;2023-02-15T09:23:59;4.50;94.80
3348;DHT22;1687;49.540;8.574;2023-02-15T09:26:28;4.40;94.60
3348;DHT22;1687;49.540;8.574;2023-02-15T09:28:57;4.40;94.70
3348;DHT22;1687;49.540;8.574;2023-02-15T09:31:26;4.30;94.80
3348;DHT22;1687;49.540;8.574;2023-02-15T09:33:54;4.40;95.10
3348;DHT22;1687;49.540;8.574;2023-02-15T09:36:29;4.40;94.70
3348;DHT22;1687;49.540;8.574;2023-02-15T09:38:59;4.40;95.10
3348;DHT22;1687;49.540;8.574;2023-02-15T09:47:30;4.30;94.60
3348;DHT22;1687;49.540;8.574;2023-02-15T09:53:52;4.20;94.90
3348;DHT22;1687;49.540;8.574;2023-02-15T09:56:31;4.20;94.90
3348;DHT22;1687;49.540;8.574;2023-02-15T10:07:30;4.40;95.20
3348;DHT22;1687;49.540;8.574;2023-02-15T10:13:17;4.50;94.90
3348;DHT22;1687;49.540;8.574;2023-02-15T10:16:08;4.40;94.90
3348;DHT22;1687;49.540;8.574;2023-02-15T10:18:59;4.30;95.00
3348;DHT22;1687;49.540;8.574;2023-02-15T10:22:04;4.30;95.10
3348;DHT22;1687;49.540;8.574;2023-02-15T10:27:46;4.40;95.20
3348;DHT22;1687;49.540;8.574;2023-02-15T10:30:15;4.30;94.80
3348;DHT22;1687;49.540;8.574;2023-02-15T10:33:03;4.30;95.40
3348;DHT22;1687;49.540;8.574;2023-02-15T10:55:04;4.50;95.00
3348;DHT22;1687;49.540;8.574;2023-02-15T11:00:34;4.40;95.30
3348;DHT22;1687;49.540;8.574;2023-02-15T11:03:51;4.40;95.20
3348;DHT22;1687;49.540;8.574;2023-02-15T11:06:18;4.40;95.10
3348;DHT22;1687;49.540;8.574;2023-02-15T11:09:00;4.40;95.40
3348;DHT22;1687;49.540;8.574;2023-02-15T11:11:32;4.60;95.30
3348;DHT22;1687;49.540;8.574;2023-02-15T11:14:22;4.60;95.40
3348;DHT22;1687;49.540;8.574;2023-02-15T11:16:57;4.70;95.40
3348;DHT22;1687;49.540;8.574;2023-02-15T11:19:37;4.80;95.30
3348;DHT22;1687;49.540;8.574;2023-02-15T11:22:06;5.00;95.90
3348;DHT22;1687;49.540;8.574;2023-02-15T11:24:39;5.00;95.10
3348;DHT22;1687;49.540;8.574;2023-02-15T11:27:18;4.90;95.00
3348;DHT22;1687;49.540;8.574;2023-02-15T11:29:48;5.00;95.50
3348;DHT22;1687;49.540;8.574;2023-02-15T11:32:30;5.10;95.60
3348;DHT22;1687;49.540;8.574;2023-02-15T11:40:55;5.30;95.70
3348;DHT22;1687;49.540;8.574;2023-02-15T11:43:31;5.40;95.20
3348;DHT22;1687;49.540;8.574;2023-02-15T11:46:11;5.40;94.90
3348;DHT22;1687;49.540;8.574;2023-02-15T11:48:37;5.40;94.90
3348;DHT22;1687;49.540;8.574;2023-02-15T11:51:04;5.40;95.40
3348;DHT22;1687;49.540;8.574;2023-02-15T11:53:33;5.40;94.80
3348;DHT22;1687;49.540;8.574;2023-02-15T11:56:01;5.30;94.80
3348;DHT22;1687;49.540;8.574;2023-02-15T11:58:43;5.10;94.40
3348;DHT22;1687;49.540;8.574;2023-02-15T12:01:36;5.20;94.80
3348;DHT22;1687;49.540;8.574;2023-02-15T12:04:18;5.20;95.10
3348;DHT22;1687;49.540;8.574;2023-02-15T12:07:12;5.20;94.80
3348;DHT22;1687;49.540;8.574;2023-02-15T12:10:05;5.20;94.80
3348;DHT22;1687;49.540;8.574;2023-02-15T12:12:42;5.20;94.70
3348;DHT22;1687;49.540;8.574;2023-02-15T12:15:10;5.20;94.90
3348;DHT22;1687;49.540;8.574;2023-02-15T12:17:48;5.20;94.70
3348;DHT22;1687;49.540;8.574;2023-02-15T12:22:58;5.40;95.00
3348;DHT22;1687;49.540;8.574;2023-02-15T12:25:48;5.40;95.20
3348;DHT22;1687;49.540;8.574;2023-02-15T12:28:36;5.60;95.30
3348;DHT22;1687;49.540;8.574;2023-02-15T12:31:22;5.70;94.80
3348;DHT22;1687;49.540;8.574;2023-02-15T12:33:53;5.70;94.90
3348;DHT22;1687;49.540;8.574;2023-02-15T12:36:25;5.80;95.10
3348;DHT22;1687;49.540;8.574;2023-02-15T12:41:37;6.10;95.40
3348;DHT22;1687;49.540;8.574;2023-02-15T12:44:14;6.20;95.20
3348;DHT22;1687;49.540;8.574;2023-02-15T12:46:41;6.20;94.70
3348;DHT22;1687;49.540;8.574;2023-02-15T12:51:49;6.20;94.40
3348;DHT22;1687;49.540;8.574;2023-02-15T12:54:46;6.10;94.20
3348;DHT22;1687;49.540;8.574;2023-02-15T12:57:26;6.00;94.40
3348;DHT22;1687;49.540;8.574;2023-02-15T13:00:24;6.10;94.90
3348;DHT22;1687;49.540;8.574;2023-02-15T13:02:49;6.30;95.10
3348;DHT22;1687;49.540;8.574;2023-02-15T13:08:15;6.30;93.90
3348;DHT22;1687;49.540;8.574;2023-02-15T13:11:03;6.20;94.60
3348;DHT22;1687;49.540;8.574;2023-02-15T13:13:34;6.40;95.00
3348;DHT22;1687;49.540;8.574;2023-02-15T13:16:10;6.50;94.50
3348;DHT22;1687;49.540;8.574;2023-02-15T13:18:45;6.50;94.00
3348;DHT22;1687;49.540;8.574;2023-02-15T13:21:13;6.30;93.70
3348;DHT22;1687;49.540;8.574;2023-02-15T13:23:46;6.30;94.20
3348;DHT22;1687;49.540;8.574;2023-02-15T13:26:19;6.20;93.70
3348;DHT22;1687;49.540;8.574;2023-02-15T13:28:53;6.10;93.90
3348;DHT22;1687;49.540;8.574;2023-02-15T13:31:23;6.20;94.20
3348;DHT22;1687;49.540;8.574;2023-02-15T13:33:58;6.00;93.40
3348;DHT22;1687;49.540;8.574;2023-02-15T13:36:49;6.00;93.50
3348;DHT22;1687;49.540;8.574;2023-02-15T13:39:39;6.00;94.00
3348;DHT22;1687;49.540;8.574;2023-02-15T13:42:24;6.00;93.90
3348;DHT22;1687;49.540;8.574;2023-02-15T13:54:05;6.50;93.30
3348;DHT22;1687;49.540;8.574;2023-02-15T14:02:38;6.40;93.80
3348;DHT22;1687;49.540;8.574;2023-02-15T14:05:20;6.50;93.50
3348;DHT22;1687;49.540;8.574;2023-02-15T14:07:50;6.40;93.30
3348;DHT22;1687;49.540;8.574;2023-02-15T14:16:33;6.50;94.10
3348;DHT22;1687;49.540;8.574;2023-02-15T14:19:15;6.60;93.90
3348;DHT22;1687;49.540;8.574;2023-02-15T14:21:51;6.80;94.10
3348;DHT22;1687;49.540;8.574;2023-02-15T14:30:15;7.20;93.30
3348;DHT22;1687;49.540;8.574;2023-02-15T14:32:48;7.00;92.40
3348;DHT22;1687;49.540;8.574;2023-02-15T14:35:26;6.80;91.90
3348;DHT22;1687;49.540;8.574;2023-02-15T14:38:32;6.60;92.50
3348;DHT22;1687;49.540;8.574;2023-02-15T14:47:26;7.20;93.40
3348;DHT22;1687;49.540;8.574;2023-02-15T14:49:54;7.30;92.50
3348;DHT22;1687;49.540;8.574;2023-02-15T14:52:20;7.20;92.30
3348;DHT22;1687;49.540;8.574;2023-02-15T15:07:48;7.80;92.60
3348;DHT22;1687;49.540;8.574;2023-02-15T15:12:55;8.30;93.00
3348;DHT22;1687;49.540;8.574;2023-02-15T15:18:06;9.20;91.80
3348;DHT22;1687;49.540;8.574;2023-02-15T15:20:50;9.70;92.40
3348;DHT22;1687;49.540;8.574;2023-02-15T15:25:47;10.50;90.50
3348;DHT22;1687;49.540;8.574;2023-02-15T15:31:20;11.50;90.80
3348;DHT22;1687;49.540;8.574;2023-02-15T15:34:16;11.60;88.20
3348;DHT22;1687;49.540;8.574;2023-02-15T15:40:01;11.40;87.10
3348;DHT22;1687;49.540;8.574;2023-02-15T15:43:24;10.30;84.50
3348;DHT22;1687;49.540;8.574;2023-02-15T15:49:34;8.30;86.50
3348;DHT22;1687;49.540;8.574;2023-02-15T15:52:12;7.90;86.80
3348;DHT22;1687;49.540;8.574;2023-02-15T15:54:42;7.60;86.50
3348;DHT22;1687;49.540;8.574;2023-02-15T15:57:32;7.30;86.90
3348;DHT22;1687;49.540;8.574;2023-02-15T16:00:00;7.20;87.20
3348;DHT22;1687;49.540;8.574;2023-02-15T16:02:27;7.00;87.00
3348;DHT22;1687;49.540;8.574;2023-02-15T16:04:53;6.80;87.20
3348;DHT22;1687;49.540;8.574;2023-02-15T16:10:04;6.70;87.30
3348;DHT22;1687;49.540;8.574;2023-02-15T16:12:35;6.60;87.30
3348;DHT22;1687;49.540;8.574;2023-02-15T16:15:18;6.50;87.20
3348;DHT22;1687;49.540;8.574;2023-02-15T16:17:53;6.30;86.80
3348;DHT22;1687;49.540;8.574;2023-02-15T16:20:33;6.20;86.80
3348;DHT22;1687;49.540;8.574;2023-02-15T16:25:44;6.00;86.70
3348;DHT22;1687;49.540;8.574;2023-02-15T16:28:16;5.90;86.40
3348;DHT22;1687;49.540;8.574;2023-02-15T16:30:44;5.70;86.60
3348;DHT22;1687;49.540;8.574;2023-02-15T16:33:15;5.70;87.00
3348;DHT22;1687;49.540;8.574;2023-02-15T16:35:55;5.70;87.50
3348;DHT22;1687;49.540;8.574;2023-02-15T16:41:17;5.60;87.10
3348;DHT22;1687;49.540;8.574;2023-02-15T16:43:49;5.50;87.30
3348;DHT22;1687;49.540;8.574;2023-02-15T16:48:50;5.50;87.50
3348;DHT22;1687;49.540;8.574;2023-02-15T16:51:26;5.40;87.30
3348;DHT22;1687;49.540;8.574;2023-02-15T16:53:55;5.40;87.60
3348;DHT22;1687;49.540;8.574;2023-02-15T16:56:24;5.40;87.80
3348;DHT22;1687;49.540;8.574;2023-02-15T16:58:53;5.40;87.80
3348;DHT22;1687;49.540;8.574;2023-02-15T17:01:22;5.40;87.70
3348;DHT22;1687;49.540;8.574;2023-02-15T17:03:50;5.30;87.70
3348;DHT22;1687;49.540;8.574;2023-02-15T17:06:27;5.30;87.80
3348;DHT22;1687;49.540;8.574;2023-02-15T17:09:04;5.30;88.10
3348;DHT22;1687;49.540;8.574;2023-02-15T17:11:37;5.30;88.20
3348;DHT22;1687;49.540;8.574;2023-02-15T17:16:43;5.20;87.90
3348;DHT22;1687;49.540;8.574;2023-02-15T17:22:03;5.00;87.30
3348;DHT22;1687;49.540;8.574;2023-02-15T17:24:40;5.00;87.20
3348;DHT22;1687;49.540;8.574;2023-02-15T17:27:16;4.90;87.40
3348;DHT22;1687;49.540;8.574;2023-02-15T17:29:57;4.80;87.30
3348;DHT22;1687;49.540;8.574;2023-02-15T17:32:27;4.80;87.70
3348;DHT22;1687;49.540;8.574;2023-02-15T17:40:22;4.70;87.80
3348;DHT22;1687;49.540;8.574;2023-02-15T17:42:54;4.60;87.60
3348;DHT22;1687;49.540;8.574;2023-02-15T17:45:21;4.60;88.10
3348;DHT22;1687;49.540;8.574;2023-02-15T17:47:49;4.60;88.10
3348;DHT22;1687;49.540;8.574;2023-02-15T17:50:20;4.50;88.20
3348;DHT22;1687;49.540;8.574;2023-02-15T17:52:47;4.50;88.30
3348;DHT22;1687;49.540;8.574;2023-02-15T17:55:15;4.50;88.20
3348;DHT22;1687;49.540;8.574;2023-02-15T17:58:02;4.40;88.10
3348;DHT22;1687;49.540;8.574;2023-02-15T18:00:34;4.30;87.90
3348;DHT22;1687;49.540;8.574;2023-02-15T18:03:21;4.30;88.20
3348;DHT22;1687;49.540;8.574;2023-02-15T18:06:15;4.30;88.80
3348;DHT22;1687;49.540;8.574;2023-02-15T18:08:59;4.30;88.80
3348;DHT22;1687;49.540;8.574;2023-02-15T18:11:43;4.20;88.50
3348;DHT22;1687;49.540;8.574;2023-02-15T18:14:13;4.20;88.70
3348;DHT22;1687;49.540;8.574;2023-02-15T18:16:41;4.10;88.50
3348;DHT22;1687;49.540;8.574;2023-02-15T18:19:19;4.10;88.70
3348;DHT22;1687;49.540;8.574;2023-02-15T18:21:46;4.00;88.40
3348;DHT22;1687;49.540;8.574;2023-02-15T18:24:23;4.00;88.70
3348;DHT22;1687;49.540;8.574;2023-02-15T18:26:52;4.00;89.50
3348;DHT22;1687;49.540;8.574;2023-02-15T18:29:19;3.90;88.80
3348;DHT22;1687;49.540;8.574;2023-02-15T18:31:48;3.90;88.80
3348;DHT22;1687;49.540;8.574;2023-02-15T18:34:29;3.90;89.00
3348;DHT22;1687;49.540;8.574;2023-02-15T18:36:57;3.90;89.10
3348;DHT22;1687;49.540;8.574;2023-02-15T18:39:26;3.90;89.10
3348;DHT22;1687;49.540;8.574;2023-02-15T18:41:55;3.90;89.20
3348;DHT22;1687;49.540;8.574;2023-02-15T18:44:21;3.90;90.00
3348;DHT22;1687;49.540;8.574;2023-02-15T18:46:48;3.80;89.20
3348;DHT22;1687;49.540;8.574;2023-02-15T18:49:13;3.80;89.20
3348;DHT22;1687;49.540;8.574;2023-02-15T18:51:39;3.70;89.40
3348;DHT22;1687;49.540;8.574;2023-02-15T18:54:14;3.70;89.60
3348;DHT22;1687;49.540;8.574;2023-02-15T18:56:42;3.70;89.50
3348;DHT22;1687;49.540;8.574;2023-02-15T18:59:15;3.70;89.80
3348;DHT22;1687;49.540;8.574;2023-02-15T19:01:41;3.70;89.70
3348;DHT22;1687;49.540;8.574;2023-02-15T19:04:07;3.70;89.70
3348;DHT22;1687;49.540;8.574;2023-02-15T19:06:33;3.70;89.50
3348;DHT22;1687;49.540;8.574;2023-02-15T19:08:59;3.70;89.60
3348;DHT22;1687;49.540;8.574;2023-02-15T19:11:26;3.60;89.60
3348;DHT22;1687;49.540;8.574;2023-02-15T19:13:52;3.60;89.60
3348;DHT22;1687;49.540;8.574;2023-02-15T19:16:28;3.50;89.70
3348;DHT22;1687;49.540;8.574;2023-02-15T19:18:55;3.50;89.60
3348;DHT22;1687;49.540;8.574;2023-02-15T19:21:22;3.50;89.80
3348;DHT22;1687;49.540;8.574;2023-02-15T19:23:55;3.50;89.70
3348;DHT22;1687;49.540;8.574;2023-02-15T19:26:29;3.50;90.00
3348;DHT22;1687;49.540;8.574;2023-02-15T19:28:58;3.50;90.00
3348;DHT22;1687;49.540;8.574;2023-02-15T19:31:25;3.50;90.00
3348;DHT22;1687;49.540;8.574;2023-02-15T19:33:51;3.50;90.10
3348;DHT22;1687;49.540;8.574;2023-02-15T19:36:17;3.50;90.10
3348;DHT22;1687;49.540;8.574;2023-02-15T19:38:45;3.40;90.00
3348;DHT22;1687;49.540;8.574;2023-02-15T19:41:24;3.40;90.10
3348;DHT22;1687;49.540;8.574;2023-02-15T19:43:54;3.30;89.60
3348;DHT22;1687;49.540;8.574;2023-02-15T19:46:22;3.20;89.30
3348;DHT22;1687;49.540;8.574;2023-02-15T19:48:52;3.10;89.10